« Back
NWS Peachtree City, Ga » Text Product » MCN Terminal Aerodrome Forecast


Printer-friendly Version
Current Version              Previous Versions:   1  2  3  4  5  6  7  8  9  

Terminal Aerodrome Forecast

477
FTUS42 KFFC 301257 AAB
TAFMCN
TAF AMD
KMCN 301257Z 3013/3112 07005KT 6SM -SHRA BR SCT010 BKN025 OVC060
      TEMPO 3013/3015 1SM TSRA BKN005CB
     FM301800 11008KT P6SM -SHRA BKN035
      TEMPO 3018/3022 5SM TSRA BKN025CB
     FM310100 11004KT P6SM SCT010 BKN100
     FM310600 09004KT 3SM BR BKN005 OVC030=

USA.gov is the U.S. government's official web portal to all federal, state and local government web resources and services.